sensor_id;sensor_type;location;lat;lon;timestamp;pressure;altitude;pressure_sealevel;temperature;humidity
73103;BME280;61294;65.988;29.172;2023-05-19T00:01:37;99285.31;;;-0.60;90.84
73103;BME280;61294;65.988;29.172;2023-05-19T00:04:28;99293.00;;;-0.62;91.20
73103;BME280;61294;65.988;29.172;2023-05-19T00:07:03;99298.09;;;-0.63;90.65
73103;BME280;61294;65.988;29.172;2023-05-19T00:09:35;99291.00;;;-0.67;90.94
73103;BME280;61294;65.988;29.172;2023-05-19T00:15:51;99305.25;;;-0.76;91.27
73103;BME280;61294;65.988;29.172;2023-05-19T00:21:52;99319.75;;;-0.79;91.55
73103;BME280;61294;65.988;29.172;2023-05-19T00:27:30;99305.13;;;-0.95;91.05
73103;BME280;61294;65.988;29.172;2023-05-19T00:36:26;99310.38;;;-1.10;91.28
73103;BME280;61294;65.988;29.172;2023-05-19T00:39:32;99319.22;;;-1.07;91.05
73103;BME280;61294;65.988;29.172;2023-05-19T00:42:29;99341.56;;;-1.07;91.06
73103;BME280;61294;65.988;29.172;2023-05-19T00:55:47;99342.63;;;-1.20;91.04
73103;BME280;61294;65.988;29.172;2023-05-19T01:12:21;99357.97;;;-1.40;92.15
73103;BME280;61294;65.988;29.172;2023-05-19T01:36:06;99379.66;;;-1.21;93.90
73103;BME280;61294;65.988;29.172;2023-05-19T01:38:55;99387.72;;;-1.15;93.52
73103;BME280;61294;65.988;29.172;2023-05-19T01:41:22;99369.38;;;-1.19;93.14
73103;BME280;61294;65.988;29.172;2023-05-19T01:43:49;99382.53;;;-1.15;93.67
73103;BME280;61294;65.988;29.172;2023-05-19T01:50:23;99382.63;;;-1.13;94.23
73103;BME280;61294;65.988;29.172;2023-05-19T01:52:42;99381.09;;;-1.10;95.11
73103;BME280;61294;65.988;29.172;2023-05-19T01:55:09;99378.28;;;-0.98;95.16
73103;BME280;61294;65.988;29.172;2023-05-19T02:08:18;99395.66;;;-0.95;95.18
73103;BME280;61294;65.988;29.172;2023-05-19T02:10:59;99397.75;;;-0.88;94.97
73103;BME280;61294;65.988;29.172;2023-05-19T02:13:32;99404.69;;;-0.87;95.26
73103;BME280;61294;65.988;29.172;2023-05-19T02:22:57;99401.03;;;-0.74;94.31
73103;BME280;61294;65.988;29.172;2023-05-19T03:03:50;99426.22;;;-0.37;96.15
73103;BME280;61294;65.988;29.172;2023-05-19T03:06:24;99422.19;;;-0.32;96.64
73103;BME280;61294;65.988;29.172;2023-05-19T03:12:37;99425.28;;;-0.23;97.00
73103;BME280;61294;65.988;29.172;2023-05-19T03:15:03;99426.22;;;-0.21;96.36
73103;BME280;61294;65.988;29.172;2023-05-19T03:17:29;99426.44;;;-0.16;96.40
73103;BME280;61294;65.988;29.172;2023-05-19T03:19:59;99424.84;;;-0.14;96.69
73103;BME280;61294;65.988;29.172;2023-05-19T03:22:25;99432.75;;;-0.11;97.11
73103;BME280;61294;65.988;29.172;2023-05-19T03:24:51;99428.44;;;-0.10;96.98
73103;BME280;61294;65.988;29.172;2023-05-19T03:27:18;99441.81;;;-0.03;97.10
73103;BME280;61294;65.988;29.172;2023-05-19T03:29:44;99434.03;;;-0.03;96.66
73103;BME280;61294;65.988;29.172;2023-05-19T03:32:10;99440.13;;;0.16;97.91
73103;BME280;61294;65.988;29.172;2023-05-19T03:34:35;99442.22;;;0.23;98.10
73103;BME280;61294;65.988;29.172;2023-05-19T03:37:01;99421.00;;;0.14;97.66
73103;BME280;61294;65.988;29.172;2023-05-19T03:39:27;99442.34;;;0.26;97.21
73103;BME280;61294;65.988;29.172;2023-05-19T03:41:53;99446.72;;;0.27;97.36
73103;BME280;61294;65.988;29.172;2023-05-19T03:44:20;99429.41;;;0.26;97.15
73103;BME280;61294;65.988;29.172;2023-05-19T03:46:51;99450.16;;;0.44;97.34
73103;BME280;61294;65.988;29.172;2023-05-19T03:49:17;99435.19;;;0.39;97.21
73103;BME280;61294;65.988;29.172;2023-05-19T03:51:43;99451.56;;;0.56;96.99
73103;BME280;61294;65.988;29.172;2023-05-19T03:54:09;99456.81;;;0.57;96.47
73103;BME280;61294;65.988;29.172;2023-05-19T03:56:38;99458.03;;;0.65;96.89
73103;BME280;61294;65.988;29.172;2023-05-19T03:59:04;99461.91;;;0.74;96.47
73103;BME280;61294;65.988;29.172;2023-05-19T04:01:35;99460.41;;;0.79;95.71
73103;BME280;61294;65.988;29.172;2023-05-19T04:04:02;99451.84;;;0.80;95.25
73103;BME280;61294;65.988;29.172;2023-05-19T04:06:27;99450.47;;;0.88;95.20
73103;BME280;61294;65.988;29.172;2023-05-19T04:09:00;99464.75;;;0.98;94.16
73103;BME280;61294;65.988;29.172;2023-05-19T04:11:26;99431.50;;;0.89;94.02
73103;BME280;61294;65.988;29.172;2023-05-19T04:13:52;99457.47;;;1.09;93.74
73103;BME280;61294;65.988;29.172;2023-05-19T04:16:18;99452.44;;;1.12;93.08
73103;BME280;61294;65.988;29.172;2023-05-19T04:18:53;99456.47;;;1.25;91.89
73103;BME280;61294;65.988;29.172;2023-05-19T04:21:19;99459.25;;;1.29;91.58
73103;BME280;61294;65.988;29.172;2023-05-19T04:24:04;99460.63;;;1.41;90.37
73103;BME280;61294;65.988;29.172;2023-05-19T04:29:36;99461.19;;;1.53;89.56
73103;BME280;61294;65.988;29.172;2023-05-19T04:50:01;99473.84;;;2.05;86.88
73103;BME280;61294;65.988;29.172;2023-05-19T05:10:21;99472.78;;;2.64;82.01
73103;BME280;61294;65.988;29.172;2023-05-19T05:13:50;99475.50;;;2.67;81.84
73103;BME280;61294;65.988;29.172;2023-05-19T05:16:03;99485.03;;;2.89;81.35
73103;BME280;61294;65.988;29.172;2023-05-19T05:18:35;99485.78;;;2.86;80.21
73103;BME280;61294;65.988;29.172;2023-05-19T05:21:04;99482.94;;;2.80;81.04
73103;BME280;61294;65.988;29.172;2023-05-19T05:23:31;99495.22;;;3.05;79.37
73103;BME280;61294;65.988;29.172;2023-05-19T05:25:57;99481.00;;;2.97;79.52
73103;BME280;61294;65.988;29.172;2023-05-19T05:28:22;99488.59;;;3.14;79.24
73103;BME280;61294;65.988;29.172;2023-05-19T05:30:48;99486.94;;;3.16;79.13
73103;BME280;61294;65.988;29.172;2023-05-19T05:33:15;99476.03;;;3.03;79.57
73103;BME280;61294;65.988;29.172;2023-05-19T05:35:41;99475.59;;;3.14;78.91
73103;BME280;61294;65.988;29.172;2023-05-19T05:38:07;99479.66;;;3.07;78.65
73103;BME280;61294;65.988;29.172;2023-05-19T05:40:33;99485.25;;;3.18;77.73
73103;BME280;61294;65.988;29.172;2023-05-19T05:42:58;99458.84;;;3.07;78.98
73103;BME280;61294;65.988;29.172;2023-05-19T05:45:24;99490.91;;;3.53;78.01
73103;BME280;61294;65.988;29.172;2023-05-19T05:47:51;99494.88;;;3.43;77.04
73103;BME280;61294;65.988;29.172;2023-05-19T05:50:17;99463.75;;;3.46;72.72
73103;BME280;61294;65.988;29.172;2023-05-19T05:52:46;99479.06;;;3.61;71.31
73103;BME280;61294;65.988;29.172;2023-05-19T05:55:13;99482.28;;;3.54;72.44
73103;BME280;61294;65.988;29.172;2023-05-19T05:57:39;99490.41;;;3.63;72.79
73103;BME280;61294;65.988;29.172;2023-05-19T06:00:07;99494.75;;;3.62;72.81
73103;BME280;61294;65.988;29.172;2023-05-19T06:02:52;99496.59;;;3.65;71.69
73103;BME280;61294;65.988;29.172;2023-05-19T06:05:18;99472.72;;;3.54;71.25
73103;BME280;61294;65.988;29.172;2023-05-19T06:07:44;99466.28;;;3.69;69.44
73103;BME280;61294;65.988;29.172;2023-05-19T06:10:10;99495.25;;;3.76;70.58
73103;BME280;61294;65.988;29.172;2023-05-19T06:12:36;99488.41;;;3.80;71.21
73103;BME280;61294;65.988;29.172;2023-05-19T06:15:07;99457.91;;;3.77;71.53
73103;BME280;61294;65.988;29.172;2023-05-19T06:17:33;99487.41;;;4.01;72.17
73103;BME280;61294;65.988;29.172;2023-05-19T06:20:01;99495.28;;;4.02;70.54
73103;BME280;61294;65.988;29.172;2023-05-19T06:22:27;99495.44;;;4.07;70.24
73103;BME280;61294;65.988;29.172;2023-05-19T06:24:53;99486.19;;;4.15;69.17
73103;BME280;61294;65.988;29.172;2023-05-19T06:27:18;99473.38;;;4.23;67.59
73103;BME280;61294;65.988;29.172;2023-05-19T06:29:44;99487.69;;;4.34;68.03
73103;BME280;61294;65.988;29.172;2023-05-19T06:32:10;99493.09;;;4.40;67.66
73103;BME280;61294;65.988;29.172;2023-05-19T06:34:35;99498.97;;;4.35;68.08
73103;BME280;61294;65.988;29.172;2023-05-19T06:37:02;99498.94;;;4.33;67.98
73103;BME280;61294;65.988;29.172;2023-05-19T06:39:28;99469.13;;;4.25;67.01
73103;BME280;61294;65.988;29.172;2023-05-19T06:41:54;99484.50;;;4.43;66.57
73103;BME280;61294;65.988;29.172;2023-05-19T06:44:21;99501.94;;;4.71;66.65
73103;BME280;61294;65.988;29.172;2023-05-19T06:46:47;99500.97;;;4.68;67.35
73103;BME280;61294;65.988;29.172;2023-05-19T06:49:13;99474.75;;;4.64;66.77
73103;BME280;61294;65.988;29.172;2023-05-19T06:51:38;99502.94;;;5.02;66.39
73103;BME280;61294;65.988;29.172;2023-05-19T06:54:04;99509.94;;;5.03;65.49
73103;BME280;61294;65.988;29.172;2023-05-19T06:56:30;99501.50;;;5.12;65.00
73103;BME280;61294;65.988;29.172;2023-05-19T06:58:55;99492.00;;;5.15;66.08
73103;BME280;61294;65.988;29.172;2023-05-19T07:01:21;99502.09;;;5.03;66.63
73103;BME280;61294;65.988;29.172;2023-05-19T07:03:47;99494.63;;;5.15;65.90
73103;BME280;61294;65.988;29.172;2023-05-19T07:06:13;99490.84;;;5.06;66.03
73103;BME280;61294;65.988;29.172;2023-05-19T07:08:38;99503.66;;;5.27;65.85
73103;BME280;61294;65.988;29.172;2023-05-19T07:11:04;99505.28;;;5.22;65.32
73103;BME280;61294;65.988;29.172;2023-05-19T07:13:30;99484.69;;;5.32;65.09
73103;BME280;61294;65.988;29.172;2023-05-19T07:15:57;99505.34;;;5.53;63.89
73103;BME280;61294;65.988;29.172;2023-05-19T07:18:23;99500.09;;;5.53;62.60
73103;BME280;61294;65.988;29.172;2023-05-19T07:20:51;99506.63;;;5.38;62.96
73103;BME280;61294;65.988;29.172;2023-05-19T07:23:17;99484.00;;;5.09;63.26
73103;BME280;61294;65.988;29.172;2023-05-19T07:25:43;99499.81;;;5.44;64.09
73103;BME280;61294;65.988;29.172;2023-05-19T07:28:08;99471.06;;;5.44;64.48
73103;BME280;61294;65.988;29.172;2023-05-19T07:30:34;99514.59;;;5.73;63.47
73103;BME280;61294;65.988;29.172;2023-05-19T07:33:00;99506.22;;;5.84;63.23
73103;BME280;61294;65.988;29.172;2023-05-19T07:35:25;99468.31;;;5.70;63.42
73103;BME280;61294;65.988;29.172;2023-05-19T07:37:51;99477.19;;;5.75;63.93
73103;BME280;61294;65.988;29.172;2023-05-19T07:40:17;99511.31;;;6.10;61.73
73103;BME280;61294;65.988;29.172;2023-05-19T07:42:43;99499.22;;;6.15;62.53
73103;BME280;61294;65.988;29.172;2023-05-19T07:45:09;99475.69;;;6.15;63.65
73103;BME280;61294;65.988;29.172;2023-05-19T07:47:36;99496.19;;;6.32;62.42
73103;BME280;61294;65.988;29.172;2023-05-19T07:50:02;99497.50;;;6.49;62.67
73103;BME280;61294;65.988;29.172;2023-05-19T07:52:28;99488.69;;;6.46;62.48
73103;BME280;61294;65.988;29.172;2023-05-19T07:54:54;99484.50;;;6.54;62.07
73103;BME280;61294;65.988;29.172;2023-05-19T07:57:19;99493.56;;;6.67;61.20
73103;BME280;61294;65.988;29.172;2023-05-19T07:59:45;99482.28;;;6.69;62.33
73103;BME280;61294;65.988;29.172;2023-05-19T08:02:11;99485.16;;;6.80;62.49
73103;BME280;61294;65.988;29.172;2023-05-19T08:04:37;99478.38;;;6.88;61.56
73103;BME280;61294;65.988;29.172;2023-05-19T08:07:03;99480.16;;;6.91;61.60
73103;BME280;61294;65.988;29.172;2023-05-19T08:09:29;99485.75;;;7.06;61.43
73103;BME280;61294;65.988;29.172;2023-05-19T08:11:54;99486.34;;;7.33;62.94
73103;BME280;61294;65.988;29.172;2023-05-19T08:14:20;99490.94;;;7.43;59.50
73103;BME280;61294;65.988;29.172;2023-05-19T08:16:48;99490.97;;;7.45;59.05
73103;BME280;61294;65.988;29.172;2023-05-19T08:19:13;99471.84;;;7.50;58.70
73103;BME280;61294;65.988;29.172;2023-05-19T08:21:39;99481.69;;;7.60;61.02
73103;BME280;61294;65.988;29.172;2023-05-19T08:24:07;99467.88;;;7.69;60.25
73103;BME280;61294;65.988;29.172;2023-05-19T08:26:33;99490.91;;;7.84;59.35
73103;BME280;61294;65.988;29.172;2023-05-19T08:28:59;99484.34;;;8.08;58.29
73103;BME280;61294;65.988;29.172;2023-05-19T08:31:25;99474.31;;;8.33;56.77
73103;BME280;61294;65.988;29.172;2023-05-19T08:33:50;99464.56;;;8.25;56.60
73103;BME280;61294;65.988;29.172;2023-05-19T08:36:17;99470.09;;;8.42;56.02
73103;BME280;61294;65.988;29.172;2023-05-19T08:38:43;99472.94;;;8.55;57.52
73103;BME280;61294;65.988;29.172;2023-05-19T08:41:08;99466.25;;;8.72;58.06
73103;BME280;61294;65.988;29.172;2023-05-19T08:43:34;99466.63;;;8.98;57.83
73103;BME280;61294;65.988;29.172;2023-05-19T08:46:00;99463.03;;;8.92;55.36
73103;BME280;61294;65.988;29.172;2023-05-19T08:48:28;99467.66;;;9.08;54.58
73103;BME280;61294;65.988;29.172;2023-05-19T08:53:32;99451.38;;;9.36;54.20
73103;BME280;61294;65.988;29.172;2023-05-19T08:56:05;99467.69;;;9.11;51.89
73103;BME280;61294;65.988;29.172;2023-05-19T08:58:39;99456.34;;;9.12;53.01
73103;BME280;61294;65.988;29.172;2023-05-19T09:01:08;99460.25;;;9.42;52.71
73103;BME280;61294;65.988;29.172;2023-05-19T09:03:35;99446.81;;;9.94;52.11
73103;BME280;61294;65.988;29.172;2023-05-19T09:06:11;99457.16;;;9.80;51.05
73103;BME280;61294;65.988;29.172;2023-05-19T09:08:38;99464.22;;;9.83;50.42
73103;BME280;61294;65.988;29.172;2023-05-19T09:11:04;99456.13;;;9.64;52.28
73103;BME280;61294;65.988;29.172;2023-05-19T09:13:30;99456.94;;;10.42;52.50
73103;BME280;61294;65.988;29.172;2023-05-19T09:15:56;99447.81;;;11.12;48.58
73103;BME280;61294;65.988;29.172;2023-05-19T09:18:26;99451.59;;;11.74;49.96
73103;BME280;61294;65.988;29.172;2023-05-19T09:20:59;99446.47;;;12.22;46.56
73103;BME280;61294;65.988;29.172;2023-05-19T09:23:29;99438.56;;;12.47;46.68
73103;BME280;61294;65.988;29.172;2023-05-19T09:25:56;99421.84;;;12.62;44.73
73103;BME280;61294;65.988;29.172;2023-05-19T09:28:28;99436.72;;;13.13;45.81
73103;BME280;61294;65.988;29.172;2023-05-19T09:33:25;99438.03;;;14.23;42.22
73103;BME280;61294;65.988;29.172;2023-05-19T09:35:55;99431.53;;;12.47;44.52
73103;BME280;61294;65.988;29.172;2023-05-19T09:38:25;99443.50;;;17.48;37.47
73103;BME280;61294;65.988;29.172;2023-05-19T09:41:00;99431.44;;;15.59;39.17
73103;BME280;61294;65.988;29.172;2023-05-19T09:43:30;99421.03;;;22.33;29.92
73103;BME280;61294;65.988;29.172;2023-05-19T09:48:29;99411.22;;;21.86;28.54
73103;BME280;61294;65.988;29.172;2023-05-19T09:50:55;99413.63;;;21.45;28.57
73103;BME280;61294;65.988;29.172;2023-05-19T09:53:23;99419.97;;;24.75;26.01
73103;BME280;61294;65.988;29.172;2023-05-19T09:55:50;99402.72;;;26.92;23.40
73103;BME280;61294;65.988;29.172;2023-05-19T09:58:17;99404.13;;;20.04;27.65
73103;BME280;61294;65.988;29.172;2023-05-19T10:00:44;99413.97;;;20.02;29.92
73103;BME280;61294;65.988;29.172;2023-05-19T10:03:11;99414.28;;;25.83;24.64
73103;BME280;61294;65.988;29.172;2023-05-19T10:05:37;99390.50;;;27.15;20.86
73103;BME280;61294;65.988;29.172;2023-05-19T10:08:04;99397.88;;;28.14;22.60
73103;BME280;61294;65.988;29.172;2023-05-19T10:10:35;99399.34;;;28.59;19.17
73103;BME280;61294;65.988;29.172;2023-05-19T10:13:01;99388.03;;;28.80;20.79
73103;BME280;61294;65.988;29.172;2023-05-19T10:15:31;99398.72;;;25.89;21.18
73103;BME280;61294;65.988;29.172;2023-05-19T10:17:58;99392.13;;;23.03;25.60
73103;BME280;61294;65.988;29.172;2023-05-19T10:20:25;99398.84;;;26.81;23.27
73103;BME280;61294;65.988;29.172;2023-05-19T10:22:51;99398.47;;;28.73;20.39
73103;BME280;61294;65.988;29.172;2023-05-19T10:25:17;99396.34;;;29.94;19.33
73103;BME280;61294;65.988;29.172;2023-05-19T10:27:56;99406.75;;;26.06;22.71
73103;BME280;61294;65.988;29.172;2023-05-19T10:30:44;99401.63;;;27.25;21.53
73103;BME280;61294;65.988;29.172;2023-05-19T10:33:15;99397.31;;;28.63;19.03
73103;BME280;61294;65.988;29.172;2023-05-19T10:38:54;99402.47;;;26.02;21.61
73103;BME280;61294;65.988;29.172;2023-05-19T10:41:33;99399.41;;;24.00;24.06
73103;BME280;61294;65.988;29.172;2023-05-19T10:44:08;99390.66;;;28.54;19.95
73103;BME280;61294;65.988;29.172;2023-05-19T10:46:41;99393.66;;;26.93;21.80
73103;BME280;61294;65.988;29.172;2023-05-19T10:49:07;99393.44;;;28.40;19.41
73103;BME280;61294;65.988;29.172;2023-05-19T10:51:33;99386.25;;;22.52;24.83
73103;BME280;61294;65.988;29.172;2023-05-19T10:54:01;99386.50;;;28.49;20.39
73103;BME280;61294;65.988;29.172;2023-05-19T10:56:32;99390.28;;;26.11;22.63
73103;BME280;61294;65.988;29.172;2023-05-19T10:59:02;99394.41;;;23.73;25.02
73103;BME280;61294;65.988;29.172;2023-05-19T11:01:34;99378.66;;;23.83;23.73
73103;BME280;61294;65.988;29.172;2023-05-19T11:04:07;99399.97;;;20.77;26.13
73103;BME280;61294;65.988;29.172;2023-05-19T11:06:38;99384.00;;;18.98;29.82
73103;BME280;61294;65.988;29.172;2023-05-19T11:09:17;99407.63;;;18.79;31.51
73103;BME280;61294;65.988;29.172;2023-05-19T11:11:51;99385.28;;;23.37;26.89
73103;BME280;61294;65.988;29.172;2023-05-19T11:14:19;99398.19;;;29.68;21.98
73103;BME280;61294;65.988;29.172;2023-05-19T11:16:49;99391.66;;;30.58;18.15
73103;BME280;61294;65.988;29.172;2023-05-19T11:19:31;99404.28;;;25.36;22.70
73103;BME280;61294;65.988;29.172;2023-05-19T11:22:12;99393.28;;;21.40;26.37
73103;BME280;61294;65.988;29.172;2023-05-19T11:24:47;99393.56;;;29.57;20.67
73103;BME280;61294;65.988;29.172;2023-05-19T11:27:25;99393.59;;;27.23;21.11
73103;BME280;61294;65.988;29.172;2023-05-19T11:32:26;99398.41;;;29.91;20.49
73103;BME280;61294;65.988;29.172;2023-05-19T11:34:54;99411.75;;;24.96;22.26
73103;BME280;61294;65.988;29.172;2023-05-19T11:37:20;99394.84;;;27.48;21.58
73103;BME280;61294;65.988;29.172;2023-05-19T11:39:46;99406.88;;;26.67;20.83
73103;BME280;61294;65.988;29.172;2023-05-19T11:42:12;99402.91;;;28.05;20.67
73103;BME280;61294;65.988;29.172;2023-05-19T11:44:38;99384.63;;;27.23;20.86
73103;BME280;61294;65.988;29.172;2023-05-19T11:47:05;99393.75;;;28.35;19.97
73103;BME280;61294;65.988;29.172;2023-05-19T11:49:31;99411.44;;;22.26;24.58
73103;BME280;61294;65.988;29.172;2023-05-19T11:51:59;99407.81;;;26.20;21.54
73103;BME280;61294;65.988;29.172;2023-05-19T11:54:31;99408.31;;;26.10;21.77
73103;BME280;61294;65.988;29.172;2023-05-19T11:57:00;99408.66;;;29.87;19.58
73103;BME280;61294;65.988;29.172;2023-05-19T11:59:33;99406.34;;;26.76;22.27
73103;BME280;61294;65.988;29.172;2023-05-19T12:02:19;99409.59;;;28.69;20.50
73103;BME280;61294;65.988;29.172;2023-05-19T12:04:47;99403.69;;;30.42;19.81
73103;BME280;61294;65.988;29.172;2023-05-19T12:07:23;99398.34;;;30.89;18.89
73103;BME280;61294;65.988;29.172;2023-05-19T12:09:51;99399.59;;;33.20;18.05
73103;BME280;61294;65.988;29.172;2023-05-19T12:12:21;99407.63;;;33.64;16.36
73103;BME280;61294;65.988;29.172;2023-05-19T12:14:51;99404.19;;;34.72;16.70
73103;BME280;61294;65.988;29.172;2023-05-19T12:17:18;99394.63;;;29.03;18.22
73103;BME280;61294;65.988;29.172;2023-05-19T12:19:46;99403.88;;;31.12;18.47
73103;BME280;61294;65.988;29.172;2023-05-19T12:22:14;99402.16;;;28.58;19.02
73103;BME280;61294;65.988;29.172;2023-05-19T12:24:41;99405.13;;;29.21;18.24
73103;BME280;61294;65.988;29.172;2023-05-19T12:29:38;99396.19;;;30.70;17.70
73103;BME280;61294;65.988;29.172;2023-05-19T12:32:07;99399.66;;;31.77;17.81
73103;BME280;61294;65.988;29.172;2023-05-19T12:34:38;99399.28;;;32.48;17.09
73103;BME280;61294;65.988;29.172;2023-05-19T12:37:04;99405.44;;;32.94;16.45
73103;BME280;61294;65.988;29.172;2023-05-19T12:39:31;99397.31;;;32.39;17.23
73103;BME280;61294;65.988;29.172;2023-05-19T12:42:07;99393.75;;;30.90;17.22
73103;BME280;61294;65.988;29.172;2023-05-19T12:44:43;99385.97;;;27.01;20.20
73103;BME280;61294;65.988;29.172;2023-05-19T12:47:11;99396.59;;;31.24;18.67
73103;BME280;61294;65.988;29.172;2023-05-19T12:49:59;99396.34;;;27.37;20.42
73103;BME280;61294;65.988;29.172;2023-05-19T12:52:27;99403.91;;;27.61;21.20
73103;BME280;61294;65.988;29.172;2023-05-19T12:55:07;99397.25;;;27.52;21.10
73103;BME280;61294;65.988;29.172;2023-05-19T12:57:39;99399.09;;;23.68;23.53
73103;BME280;61294;65.988;29.172;2023-05-19T13:00:16;99394.72;;;24.41;24.03
73103;BME280;61294;65.988;29.172;2023-05-19T13:03:03;99394.72;;;24.59;24.22
73103;BME280;61294;65.988;29.172;2023-05-19T13:05:33;99390.91;;;22.69;25.39
73103;BME280;61294;65.988;29.172;2023-05-19T13:08:07;99398.69;;;22.31;25.99
73103;BME280;61294;65.988;29.172;2023-05-19T13:10:34;99396.47;;;29.80;20.51
73103;BME280;61294;65.988;29.172;2023-05-19T13:13:01;99395.75;;;31.35;18.04
73103;BME280;61294;65.988;29.172;2023-05-19T13:15:28;99394.25;;;31.30;17.74
73103;BME280;61294;65.988;29.172;2023-05-19T13:18:03;99401.06;;;30.89;18.70
73103;BME280;61294;65.988;29.172;2023-05-19T13:20:30;99396.78;;;31.90;17.39
73103;BME280;61294;65.988;29.172;2023-05-19T13:22:57;99397.84;;;31.31;18.18
73103;BME280;61294;65.988;29.172;2023-05-19T13:25:23;99390.34;;;31.91;17.88
73103;BME280;61294;65.988;29.172;2023-05-19T13:27:49;99401.16;;;29.65;18.70
73103;BME280;61294;65.988;29.172;2023-05-19T13:30:16;99395.53;;;30.67;16.95
73103;BME280;61294;65.988;29.172;2023-05-19T13:32:42;99392.66;;;31.50;17.69
73103;BME280;61294;65.988;29.172;2023-05-19T13:35:09;99395.56;;;30.29;18.72
73103;BME280;61294;65.988;29.172;2023-05-19T13:37:35;99399.28;;;25.11;22.41
73103;BME280;61294;65.988;29.172;2023-05-19T13:40:01;99391.97;;;27.20;21.18
73103;BME280;61294;65.988;29.172;2023-05-19T13:42:28;99392.53;;;23.54;23.67
73103;BME280;61294;65.988;29.172;2023-05-19T13:44:54;99379.84;;;21.88;26.08
73103;BME280;61294;65.988;29.172;2023-05-19T13:47:22;99393.50;;;21.33;27.46
73103;BME280;61294;65.988;29.172;2023-05-19T13:49:47;99399.72;;;21.83;26.88
73103;BME280;61294;65.988;29.172;2023-05-19T13:52:14;99401.41;;;21.38;28.12
73103;BME280;61294;65.988;29.172;2023-05-19T13:54:40;99409.56;;;20.01;28.78
73103;BME280;61294;65.988;29.172;2023-05-19T13:57:05;99409.81;;;19.93;30.00
73103;BME280;61294;65.988;29.172;2023-05-19T13:59:31;99389.91;;;20.30;29.17
73103;BME280;61294;65.988;29.172;2023-05-19T14:01:59;99383.19;;;20.45;29.41
73103;BME280;61294;65.988;29.172;2023-05-19T14:04:25;99384.63;;;20.00;29.35
73103;BME280;61294;65.988;29.172;2023-05-19T14:06:51;99386.38;;;19.72;30.21
73103;BME280;61294;65.988;29.172;2023-05-19T14:09:16;99389.13;;;19.07;31.27
73103;BME280;61294;65.988;29.172;2023-05-19T14:11:42;99371.78;;;19.52;29.75
73103;BME280;61294;65.988;29.172;2023-05-19T14:14:11;99396.31;;;19.66;31.15
73103;BME280;61294;65.988;29.172;2023-05-19T14:16:38;99384.56;;;19.11;30.78
73103;BME280;61294;65.988;29.172;2023-05-19T14:19:06;99390.31;;;19.28;31.16
73103;BME280;61294;65.988;29.172;2023-05-19T14:21:32;99392.00;;;19.31;31.91
73103;BME280;61294;65.988;29.172;2023-05-19T14:23:58;99387.97;;;19.16;31.15
73103;BME280;61294;65.988;29.172;2023-05-19T14:26:25;99399.81;;;19.39;30.81
73103;BME280;61294;65.988;29.172;2023-05-19T14:28:51;99394.19;;;18.82;32.22
73103;BME280;61294;65.988;29.172;2023-05-19T14:31:17;99389.25;;;19.03;33.02
73103;BME280;61294;65.988;29.172;2023-05-19T14:33:43;99399.16;;;19.30;32.24
73103;BME280;61294;65.988;29.172;2023-05-19T14:36:09;99387.56;;;19.31;32.37
73103;BME280;61294;65.988;29.172;2023-05-19T14:38:35;99396.31;;;19.04;32.44
73103;BME280;61294;65.988;29.172;2023-05-19T14:41:01;99390.34;;;19.58;32.26
73103;BME280;61294;65.988;29.172;2023-05-19T14:43:27;99389.25;;;19.03;31.85
73103;BME280;61294;65.988;29.172;2023-05-19T14:45:53;99396.91;;;18.10;32.97
73103;BME280;61294;65.988;29.172;2023-05-19T14:48:20;99389.81;;;18.45;32.99
73103;BME280;61294;65.988;29.172;2023-05-19T14:50:46;99396.91;;;18.10;32.71
73103;BME280;61294;65.988;29.172;2023-05-19T14:53:15;99407.06;;;17.92;33.16
73103;BME280;61294;65.988;29.172;2023-05-19T14:55:42;99390.56;;;18.14;33.58
73103;BME280;61294;65.988;29.172;2023-05-19T14:58:08;99399.59;;;18.07;33.75
73103;BME280;61294;65.988;29.172;2023-05-19T15:00:34;99396.25;;;18.36;33.41
73103;BME280;61294;65.988;29.172;2023-05-19T15:02:59;99399.25;;;17.83;33.53
73103;BME280;61294;65.988;29.172;2023-05-19T15:05:25;99402.47;;;17.57;34.41
73103;BME280;61294;65.988;29.172;2023-05-19T15:07:51;99412.03;;;17.66;34.47
73103;BME280;61294;65.988;29.172;2023-05-19T15:10:17;99409.78;;;17.46;34.69
73103;BME280;61294;65.988;29.172;2023-05-19T15:12:47;99388.38;;;17.52;34.76
73103;BME280;61294;65.988;29.172;2023-05-19T15:15:13;99410.81;;;17.82;34.87
73103;BME280;61294;65.988;29.172;2023-05-19T15:17:42;99394.50;;;17.55;35.23
73103;BME280;61294;65.988;29.172;2023-05-19T15:20:08;99402.63;;;17.49;34.82
73103;BME280;61294;65.988;29.172;2023-05-19T15:22:33;99399.97;;;17.04;35.13
73103;BME280;61294;65.988;29.172;2023-05-19T15:24:59;99389.97;;;17.17;35.34
73103;BME280;61294;65.988;29.172;2023-05-19T15:27:26;99384.50;;;17.24;35.30
73103;BME280;61294;65.988;29.172;2023-05-19T15:29:52;99400.75;;;17.11;35.57
73103;BME280;61294;65.988;29.172;2023-05-19T15:32:17;99377.81;;;17.47;34.27
73103;BME280;61294;65.988;29.172;2023-05-19T15:34:44;99395.19;;;18.07;34.25
73103;BME280;61294;65.988;29.172;2023-05-19T15:37:10;99382.09;;;18.33;33.53
73103;BME280;61294;65.988;29.172;2023-05-19T15:39:36;99394.00;;;17.80;33.46
73103;BME280;61294;65.988;29.172;2023-05-19T15:42:02;99408.56;;;17.62;33.54
73103;BME280;61294;65.988;29.172;2023-05-19T15:44:28;99413.91;;;17.62;34.66
73103;BME280;61294;65.988;29.172;2023-05-19T15:46:54;99394.47;;;17.57;34.71
73103;BME280;61294;65.988;29.172;2023-05-19T15:49:20;99388.88;;;17.69;34.01
73103;BME280;61294;65.988;29.172;2023-05-19T15:51:46;99410.34;;;18.04;34.58
73103;BME280;61294;65.988;29.172;2023-05-19T15:54:12;99409.84;;;17.86;34.04
73103;BME280;61294;65.988;29.172;2023-05-19T15:56:38;99406.59;;;18.13;33.45
73103;BME280;61294;65.988;29.172;2023-05-19T15:59:03;99409.22;;;18.14;33.93
73103;BME280;61294;65.988;29.172;2023-05-19T16:01:29;99410.94;;;17.76;34.14
73103;BME280;61294;65.988;29.172;2023-05-19T16:03:55;99415.84;;;17.08;34.45